sensor_id;sensor_type;location;lat;lon;timestamp;P1;durP1;ratioP1;P2;durP2;ratioP2
65853;SDS011;52627;48.838;2.402;2024-02-04T00:01:41;4.70;;;2.00;;
65853;SDS011;52627;48.838;2.402;2024-02-04T00:04:09;5.50;;;1.90;;
65853;SDS011;52627;48.838;2.402;2024-02-04T00:06:37;4.10;;;2.00;;
65853;SDS011;52627;48.838;2.402;2024-02-04T00:09:05;5.00;;;2.30;;
65853;SDS011;52627;48.838;2.402;2024-02-04T00:11:35;4.70;;;2.20;;
65853;SDS011;52627;48.838;2.402;2024-02-04T00:14:03;5.50;;;1.90;;
65853;SDS011;52627;48.838;2.402;2024-02-04T00:16:30;8.20;;;2.10;;
65853;SDS011;52627;48.838;2.402;2024-02-04T00:18:58;8.00;;;2.20;;
65853;SDS011;52627;48.838;2.402;2024-02-04T00:21:30;7.70;;;2.00;;
65853;SDS011;52627;48.838;2.402;2024-02-04T00:24:07;7.80;;;2.60;;
65853;SDS011;52627;48.838;2.402;2024-02-04T00:26:35;4.90;;;2.00;;
65853;SDS011;52627;48.838;2.402;2024-02-04T00:29:02;5.30;;;1.90;;
65853;SDS011;52627;48.838;2.402;2024-02-04T00:31:30;5.90;;;2.00;;
65853;SDS011;52627;48.838;2.402;2024-02-04T00:33:57;4.70;;;2.00;;
65853;SDS011;52627;48.838;2.402;2024-02-04T00:36:25;6.20;;;1.60;;
65853;SDS011;52627;48.838;2.402;2024-02-04T00:38:53;6.20;;;2.00;;
65853;SDS011;52627;48.838;2.402;2024-02-04T00:41:20;6.50;;;2.00;;
65853;SDS011;52627;48.838;2.402;2024-02-04T00:43:48;5.40;;;1.70;;
65853;SDS011;52627;48.838;2.402;2024-02-04T00:46:16;5.50;;;2.00;;
65853;SDS011;52627;48.838;2.402;2024-02-04T00:48:43;6.00;;;2.40;;
65853;SDS011;52627;48.838;2.402;2024-02-04T00:51:12;5.30;;;2.10;;
65853;SDS011;52627;48.838;2.402;2024-02-04T00:53:40;7.60;;;2.20;;
65853;SDS011;52627;48.838;2.402;2024-02-04T00:56:08;6.50;;;1.80;;
65853;SDS011;52627;48.838;2.402;2024-02-04T00:58:36;5.20;;;1.90;;
65853;SDS011;52627;48.838;2.402;2024-02-04T01:01:04;3.70;;;1.60;;
65853;SDS011;52627;48.838;2.402;2024-02-04T01:03:32;6.20;;;1.80;;
65853;SDS011;52627;48.838;2.402;2024-02-04T01:06:00;7.20;;;2.30;;
65853;SDS011;52627;48.838;2.402;2024-02-04T01:08:28;4.90;;;1.50;;
65853;SDS011;52627;48.838;2.402;2024-02-04T01:10:55;6.10;;;2.00;;
65853;SDS011;52627;48.838;2.402;2024-02-04T01:13:23;5.40;;;1.80;;
65853;SDS011;52627;48.838;2.402;2024-02-04T01:15:51;5.50;;;1.50;;
65853;SDS011;52627;48.838;2.402;2024-02-04T01:18:18;5.70;;;1.70;;
65853;SDS011;52627;48.838;2.402;2024-02-04T01:20:46;6.80;;;1.60;;
65853;SDS011;52627;48.838;2.402;2024-02-04T01:23:14;4.40;;;1.70;;
65853;SDS011;52627;48.838;2.402;2024-02-04T01:25:44;8.10;;;1.80;;
65853;SDS011;52627;48.838;2.402;2024-02-04T01:28:12;4.50;;;1.60;;
65853;SDS011;52627;48.838;2.402;2024-02-04T01:30:40;4.30;;;1.80;;
65853;SDS011;52627;48.838;2.402;2024-02-04T01:33:07;6.40;;;1.70;;
65853;SDS011;52627;48.838;2.402;2024-02-04T01:35:35;6.40;;;1.70;;
65853;SDS011;52627;48.838;2.402;2024-02-04T01:38:03;7.00;;;1.70;;
65853;SDS011;52627;48.838;2.402;2024-02-04T01:40:31;5.00;;;1.80;;
65853;SDS011;52627;48.838;2.402;2024-02-04T01:42:58;8.20;;;1.80;;
65853;SDS011;52627;48.838;2.402;2024-02-04T01:45:26;6.60;;;1.30;;
65853;SDS011;52627;48.838;2.402;2024-02-04T01:47:54;5.20;;;1.80;;
65853;SDS011;52627;48.838;2.402;2024-02-04T01:50:22;5.10;;;1.30;;
65853;SDS011;52627;48.838;2.402;2024-02-04T01:52:51;3.20;;;1.20;;
65853;SDS011;52627;48.838;2.402;2024-02-04T01:55:19;5.10;;;1.70;;
65853;SDS011;52627;48.838;2.402;2024-02-04T01:57:48;4.90;;;1.10;;
65853;SDS011;52627;48.838;2.402;2024-02-04T02:00:17;3.70;;;1.30;;
65853;SDS011;52627;48.838;2.402;2024-02-04T02:02:46;4.50;;;1.20;;
65853;SDS011;52627;48.838;2.402;2024-02-04T02:05:14;4.70;;;1.20;;
65853;SDS011;52627;48.838;2.402;2024-02-04T02:07:42;5.60;;;1.30;;
65853;SDS011;52627;48.838;2.402;2024-02-04T02:10:13;4.50;;;1.20;;
65853;SDS011;52627;48.838;2.402;2024-02-04T02:12:52;4.70;;;1.30;;
65853;SDS011;52627;48.838;2.402;2024-02-04T02:15:29;3.10;;;1.10;;
65853;SDS011;52627;48.838;2.402;2024-02-04T02:18:02;2.10;;;0.90;;
65853;SDS011;52627;48.838;2.402;2024-02-04T02:20:33;4.10;;;1.10;;
65853;SDS011;52627;48.838;2.402;2024-02-04T02:23:15;3.60;;;1.20;;
65853;SDS011;52627;48.838;2.402;2024-02-04T02:25:51;3.30;;;1.20;;
65853;SDS011;52627;48.838;2.402;2024-02-04T02:28:19;4.30;;;1.70;;
65853;SDS011;52627;48.838;2.402;2024-02-04T02:30:46;4.70;;;1.60;;
65853;SDS011;52627;48.838;2.402;2024-02-04T02:33:14;3.50;;;1.60;;
65853;SDS011;52627;48.838;2.402;2024-02-04T02:35:46;4.50;;;1.40;;
65853;SDS011;52627;48.838;2.402;2024-02-04T02:41:59;6.60;;;1.60;;
65853;SDS011;52627;48.838;2.402;2024-02-04T02:44:29;5.10;;;1.50;;
65853;SDS011;52627;48.838;2.402;2024-02-04T02:46:58;4.60;;;1.50;;
65853;SDS011;52627;48.838;2.402;2024-02-04T02:49:28;3.00;;;1.30;;
65853;SDS011;52627;48.838;2.402;2024-02-04T02:51:56;4.60;;;1.50;;
65853;SDS011;52627;48.838;2.402;2024-02-04T02:54:23;4.60;;;1.30;;
65853;SDS011;52627;48.838;2.402;2024-02-04T02:56:51;5.70;;;1.60;;
65853;SDS011;52627;48.838;2.402;2024-02-04T02:59:18;4.80;;;1.80;;
65853;SDS011;52627;48.838;2.402;2024-02-04T03:01:46;3.50;;;1.20;;
65853;SDS011;52627;48.838;2.402;2024-02-04T03:04:14;7.60;;;1.80;;
65853;SDS011;52627;48.838;2.402;2024-02-04T03:06:42;6.10;;;1.60;;
65853;SDS011;52627;48.838;2.402;2024-02-04T03:09:21;3.80;;;1.40;;
65853;SDS011;52627;48.838;2.402;2024-02-04T03:11:56;5.90;;;1.50;;
65853;SDS011;52627;48.838;2.402;2024-02-04T03:14:24;4.20;;;1.60;;
65853;SDS011;52627;48.838;2.402;2024-02-04T03:16:51;6.40;;;1.70;;
65853;SDS011;52627;48.838;2.402;2024-02-04T03:19:21;6.50;;;1.50;;
65853;SDS011;52627;48.838;2.402;2024-02-04T03:21:50;5.10;;;1.60;;
65853;SDS011;52627;48.838;2.402;2024-02-04T03:24:18;5.60;;;1.50;;
65853;SDS011;52627;48.838;2.402;2024-02-04T03:26:46;4.80;;;1.50;;
65853;SDS011;52627;48.838;2.402;2024-02-04T03:29:13;6.00;;;1.60;;
65853;SDS011;52627;48.838;2.402;2024-02-04T03:31:41;7.60;;;1.70;;
65853;SDS011;52627;48.838;2.402;2024-02-04T03:34:08;4.70;;;1.60;;
65853;SDS011;52627;48.838;2.402;2024-02-04T03:36:37;5.80;;;1.70;;
65853;SDS011;52627;48.838;2.402;2024-02-04T03:39:08;6.00;;;2.00;;
65853;SDS011;52627;48.838;2.402;2024-02-04T03:41:35;4.60;;;1.30;;
65853;SDS011;52627;48.838;2.402;2024-02-04T03:44:03;2.80;;;1.30;;
65853;SDS011;52627;48.838;2.402;2024-02-04T03:46:31;3.80;;;1.30;;
65853;SDS011;52627;48.838;2.402;2024-02-04T03:48:58;4.70;;;1.30;;
65853;SDS011;52627;48.838;2.402;2024-02-04T03:51:26;5.10;;;1.60;;
65853;SDS011;52627;48.838;2.402;2024-02-04T03:53:54;3.00;;;1.20;;
65853;SDS011;52627;48.838;2.402;2024-02-04T03:56:21;3.70;;;1.30;;
65853;SDS011;52627;48.838;2.402;2024-02-04T03:58:49;3.50;;;1.30;;
65853;SDS011;52627;48.838;2.402;2024-02-04T04:01:17;5.90;;;1.60;;
65853;SDS011;52627;48.838;2.402;2024-02-04T04:03:45;3.00;;;1.10;;
65853;SDS011;52627;48.838;2.402;2024-02-04T04:06:13;6.90;;;1.50;;
65853;SDS011;52627;48.838;2.402;2024-02-04T04:08:41;3.20;;;1.10;;
65853;SDS011;52627;48.838;2.402;2024-02-04T04:11:09;3.70;;;1.00;;
65853;SDS011;52627;48.838;2.402;2024-02-04T04:13:38;4.10;;;1.20;;
65853;SDS011;52627;48.838;2.402;2024-02-04T04:16:06;4.60;;;1.30;;
65853;SDS011;52627;48.838;2.402;2024-02-04T04:18:34;3.60;;;1.10;;
65853;SDS011;52627;48.838;2.402;2024-02-04T04:21:02;2.40;;;1.00;;
65853;SDS011;52627;48.838;2.402;2024-02-04T04:23:30;4.00;;;1.30;;
65853;SDS011;52627;48.838;2.402;2024-02-04T04:25:57;5.60;;;1.20;;
65853;SDS011;52627;48.838;2.402;2024-02-04T04:28:25;4.90;;;1.20;;
65853;SDS011;52627;48.838;2.402;2024-02-04T04:30:52;3.80;;;1.10;;
65853;SDS011;52627;48.838;2.402;2024-02-04T04:33:20;5.20;;;1.80;;
65853;SDS011;52627;48.838;2.402;2024-02-04T04:35:48;5.00;;;1.30;;
65853;SDS011;52627;48.838;2.402;2024-02-04T04:38:16;5.00;;;1.20;;
65853;SDS011;52627;48.838;2.402;2024-02-04T04:40:43;4.20;;;1.20;;
65853;SDS011;52627;48.838;2.402;2024-02-04T04:43:11;4.10;;;1.40;;
65853;SDS011;52627;48.838;2.402;2024-02-04T04:45:40;3.80;;;1.30;;
65853;SDS011;52627;48.838;2.402;2024-02-04T04:48:08;3.50;;;1.30;;
65853;SDS011;52627;48.838;2.402;2024-02-04T04:50:36;2.40;;;0.90;;
65853;SDS011;52627;48.838;2.402;2024-02-04T04:53:04;3.40;;;1.00;;
65853;SDS011;52627;48.838;2.402;2024-02-04T04:55:32;3.40;;;1.10;;
65853;SDS011;52627;48.838;2.402;2024-02-04T04:57:59;3.90;;;1.10;;
65853;SDS011;52627;48.838;2.402;2024-02-04T05:00:27;4.30;;;1.00;;
65853;SDS011;52627;48.838;2.402;2024-02-04T05:02:54;3.00;;;1.00;;
65853;SDS011;52627;48.838;2.402;2024-02-04T05:05:22;3.60;;;1.10;;
65853;SDS011;52627;48.838;2.402;2024-02-04T05:07:50;2.80;;;1.00;;
65853;SDS011;52627;48.838;2.402;2024-02-04T05:10:17;4.00;;;1.00;;
65853;SDS011;52627;48.838;2.402;2024-02-04T05:12:45;2.80;;;1.10;;
65853;SDS011;52627;48.838;2.402;2024-02-04T05:15:13;2.70;;;0.90;;
65853;SDS011;52627;48.838;2.402;2024-02-04T05:17:41;3.20;;;0.90;;
65853;SDS011;52627;48.838;2.402;2024-02-04T05:20:09;2.40;;;0.90;;
65853;SDS011;52627;48.838;2.402;2024-02-04T05:22:57;6.10;;;1.20;;
65853;SDS011;52627;48.838;2.402;2024-02-04T05:25:26;2.60;;;0.90;;
65853;SDS011;52627;48.838;2.402;2024-02-04T05:27:53;3.50;;;1.40;;
65853;SDS011;52627;48.838;2.402;2024-02-04T05:30:21;2.20;;;0.90;;
65853;SDS011;52627;48.838;2.402;2024-02-04T05:32:49;4.90;;;1.20;;
65853;SDS011;52627;48.838;2.402;2024-02-04T05:35:17;2.90;;;1.20;;
65853;SDS011;52627;48.838;2.402;2024-02-04T05:37:44;3.50;;;1.20;;
65853;SDS011;52627;48.838;2.402;2024-02-04T05:40:12;4.10;;;1.10;;
65853;SDS011;52627;48.838;2.402;2024-02-04T05:42:41;2.40;;;1.00;;
65853;SDS011;52627;48.838;2.402;2024-02-04T05:45:09;4.90;;;1.30;;
65853;SDS011;52627;48.838;2.402;2024-02-04T05:47:37;2.60;;;1.20;;
65853;SDS011;52627;48.838;2.402;2024-02-04T05:50:05;2.40;;;1.00;;
65853;SDS011;52627;48.838;2.402;2024-02-04T05:52:33;3.20;;;0.90;;
65853;SDS011;52627;48.838;2.402;2024-02-04T05:55:01;2.50;;;1.00;;
65853;SDS011;52627;48.838;2.402;2024-02-04T05:57:31;2.70;;;0.70;;
65853;SDS011;52627;48.838;2.402;2024-02-04T05:59:59;4.80;;;1.30;;
65853;SDS011;52627;48.838;2.402;2024-02-04T06:02:27;1.60;;;0.60;;
65853;SDS011;52627;48.838;2.402;2024-02-04T06:04:55;3.20;;;1.00;;
65853;SDS011;52627;48.838;2.402;2024-02-04T06:07:23;2.90;;;0.70;;
65853;SDS011;52627;48.838;2.402;2024-02-04T06:09:50;3.10;;;0.80;;
65853;SDS011;52627;48.838;2.402;2024-02-04T06:12:21;2.10;;;0.90;;
65853;SDS011;52627;48.838;2.402;2024-02-04T06:14:49;1.80;;;0.70;;
65853;SDS011;52627;48.838;2.402;2024-02-04T06:17:17;3.40;;;0.80;;
65853;SDS011;52627;48.838;2.402;2024-02-04T06:19:45;2.60;;;0.70;;
65853;SDS011;52627;48.838;2.402;2024-02-04T06:22:27;2.20;;;0.80;;
65853;SDS011;52627;48.838;2.402;2024-02-04T06:24:54;2.90;;;0.80;;
65853;SDS011;52627;48.838;2.402;2024-02-04T06:27:22;2.40;;;0.80;;
65853;SDS011;52627;48.838;2.402;2024-02-04T06:29:50;4.30;;;0.90;;
65853;SDS011;52627;48.838;2.402;2024-02-04T06:32:17;2.00;;;0.90;;
65853;SDS011;52627;48.838;2.402;2024-02-04T06:34:48;4.50;;;1.00;;
65853;SDS011;52627;48.838;2.402;2024-02-04T06:37:16;3.90;;;1.00;;
65853;SDS011;52627;48.838;2.402;2024-02-04T06:39:44;2.50;;;0.90;;
65853;SDS011;52627;48.838;2.402;2024-02-04T06:42:12;3.40;;;1.00;;
65853;SDS011;52627;48.838;2.402;2024-02-04T06:44:43;1.70;;;0.70;;
65853;SDS011;52627;48.838;2.402;2024-02-04T06:47:12;3.90;;;0.80;;
65853;SDS011;52627;48.838;2.402;2024-02-04T06:49:44;2.40;;;0.90;;
65853;SDS011;52627;48.838;2.402;2024-02-04T06:52:15;3.10;;;0.70;;
65853;SDS011;52627;48.838;2.402;2024-02-04T06:54:53;3.20;;;0.80;;
65853;SDS011;52627;48.838;2.402;2024-02-04T06:57:20;5.00;;;0.90;;
65853;SDS011;52627;48.838;2.402;2024-02-04T06:59:48;2.40;;;0.80;;
65853;SDS011;52627;48.838;2.402;2024-02-04T07:02:17;1.40;;;0.70;;
65853;SDS011;52627;48.838;2.402;2024-02-04T07:04:44;2.70;;;0.70;;
65853;SDS011;52627;48.838;2.402;2024-02-04T07:07:12;2.50;;;0.60;;
65853;SDS011;52627;48.838;2.402;2024-02-04T07:09:40;2.70;;;0.80;;
65853;SDS011;52627;48.838;2.402;2024-02-04T07:12:07;2.60;;;0.90;;
65853;SDS011;52627;48.838;2.402;2024-02-04T07:14:35;4.80;;;0.90;;
65853;SDS011;52627;48.838;2.402;2024-02-04T07:17:03;2.30;;;0.80;;
65853;SDS011;52627;48.838;2.402;2024-02-04T07:19:39;2.50;;;0.80;;
65853;SDS011;52627;48.838;2.402;2024-02-04T07:22:07;4.10;;;1.00;;
65853;SDS011;52627;48.838;2.402;2024-02-04T07:24:34;1.70;;;0.90;;
65853;SDS011;52627;48.838;2.402;2024-02-04T07:27:03;3.70;;;0.70;;
65853;SDS011;52627;48.838;2.402;2024-02-04T07:29:34;3.30;;;0.80;;
65853;SDS011;52627;48.838;2.402;2024-02-04T07:32:13;2.50;;;0.90;;
65853;SDS011;52627;48.838;2.402;2024-02-04T07:34:46;4.50;;;1.00;;
65853;SDS011;52627;48.838;2.402;2024-02-04T07:37:14;3.70;;;0.80;;
65853;SDS011;52627;48.838;2.402;2024-02-04T07:39:42;2.90;;;0.90;;
65853;SDS011;52627;48.838;2.402;2024-02-04T07:42:10;3.50;;;0.90;;
65853;SDS011;52627;48.838;2.402;2024-02-04T07:44:37;2.40;;;0.90;;
65853;SDS011;52627;48.838;2.402;2024-02-04T07:47:05;3.00;;;0.90;;
65853;SDS011;52627;48.838;2.402;2024-02-04T07:49:33;2.00;;;0.70;;
65853;SDS011;52627;48.838;2.402;2024-02-04T07:52:01;1.60;;;0.70;;
65853;SDS011;52627;48.838;2.402;2024-02-04T07:54:28;5.40;;;0.90;;
65853;SDS011;52627;48.838;2.402;2024-02-04T07:56:56;3.60;;;0.80;;
65853;SDS011;52627;48.838;2.402;2024-02-04T07:59:24;2.30;;;0.70;;
65853;SDS011;52627;48.838;2.402;2024-02-04T08:01:51;2.20;;;0.70;;
65853;SDS011;52627;48.838;2.402;2024-02-04T08:04:19;2.80;;;1.00;;
65853;SDS011;52627;48.838;2.402;2024-02-04T08:06:47;2.00;;;0.80;;
65853;SDS011;52627;48.838;2.402;2024-02-04T08:09:16;4.20;;;1.80;;
65853;SDS011;52627;48.838;2.402;2024-02-04T08:11:46;3.10;;;0.80;;
65853;SDS011;52627;48.838;2.402;2024-02-04T08:14:22;2.30;;;0.80;;
65853;SDS011;52627;48.838;2.402;2024-02-04T08:16:50;4.40;;;0.90;;
65853;SDS011;52627;48.838;2.402;2024-02-04T08:19:20;4.50;;;1.00;;
65853;SDS011;52627;48.838;2.402;2024-02-04T08:21:58;3.30;;;1.00;;
65853;SDS011;52627;48.838;2.402;2024-02-04T08:24:49;3.30;;;1.30;;
65853;SDS011;52627;48.838;2.402;2024-02-04T08:27:17;3.10;;;1.30;;
65853;SDS011;52627;48.838;2.402;2024-02-04T08:32:59;3.00;;;0.90;;
65853;SDS011;52627;48.838;2.402;2024-02-04T08:35:27;4.60;;;1.00;;
65853;SDS011;52627;48.838;2.402;2024-02-04T08:37:58;3.20;;;0.80;;
65853;SDS011;52627;48.838;2.402;2024-02-04T08:40:25;3.30;;;0.90;;
65853;SDS011;52627;48.838;2.402;2024-02-04T08:42:53;2.80;;;0.90;;
65853;SDS011;52627;48.838;2.402;2024-02-04T08:45:21;2.80;;;1.10;;
65853;SDS011;52627;48.838;2.402;2024-02-04T08:47:48;2.30;;;1.00;;
65853;SDS011;52627;48.838;2.402;2024-02-04T08:50:16;3.40;;;1.10;;
65853;SDS011;52627;48.838;2.402;2024-02-04T08:52:44;3.00;;;1.10;;
65853;SDS011;52627;48.838;2.402;2024-02-04T08:55:12;3.10;;;1.10;;
65853;SDS011;52627;48.838;2.402;2024-02-04T08:57:40;4.10;;;1.20;;
65853;SDS011;52627;48.838;2.402;2024-02-04T09:00:08;3.10;;;1.00;;
65853;SDS011;52627;48.838;2.402;2024-02-04T09:02:37;3.00;;;1.00;;
65853;SDS011;52627;48.838;2.402;2024-02-04T09:05:06;3.40;;;1.00;;
65853;SDS011;52627;48.838;2.402;2024-02-04T09:07:33;4.40;;;1.00;;
65853;SDS011;52627;48.838;2.402;2024-02-04T09:10:01;4.60;;;1.40;;
65853;SDS011;52627;48.838;2.402;2024-02-04T09:12:29;3.00;;;0.90;;
65853;SDS011;52627;48.838;2.402;2024-02-04T09:14:57;2.50;;;1.00;;
65853;SDS011;52627;48.838;2.402;2024-02-04T09:17:25;2.90;;;1.10;;
65853;SDS011;52627;48.838;2.402;2024-02-04T09:19:53;3.50;;;1.00;;
65853;SDS011;52627;48.838;2.402;2024-02-04T09:22:20;4.20;;;1.10;;
65853;SDS011;52627;48.838;2.402;2024-02-04T09:24:48;2.60;;;0.80;;
65853;SDS011;52627;48.838;2.402;2024-02-04T09:27:16;2.00;;;0.70;;
65853;SDS011;52627;48.838;2.402;2024-02-04T09:29:43;3.80;;;0.90;;
65853;SDS011;52627;48.838;2.402;2024-02-04T09:32:11;2.80;;;0.90;;
65853;SDS011;52627;48.838;2.402;2024-02-04T09:34:40;3.60;;;0.90;;
65853;SDS011;52627;48.838;2.402;2024-02-04T09:37:08;2.80;;;1.20;;
65853;SDS011;52627;48.838;2.402;2024-02-04T09:39:35;1.50;;;0.80;;
65853;SDS011;52627;48.838;2.402;2024-02-04T09:42:03;4.30;;;1.10;;
65853;SDS011;52627;48.838;2.402;2024-02-04T09:44:32;3.30;;;0.80;;
65853;SDS011;52627;48.838;2.402;2024-02-04T09:47:00;3.00;;;1.00;;
65853;SDS011;52627;48.838;2.402;2024-02-04T09:49:28;2.10;;;0.90;;
65853;SDS011;52627;48.838;2.402;2024-02-04T09:51:59;2.70;;;0.90;;
65853;SDS011;52627;48.838;2.402;2024-02-04T09:54:38;2.50;;;1.00;;
65853;SDS011;52627;48.838;2.402;2024-02-04T09:57:09;2.70;;;0.90;;
65853;SDS011;52627;48.838;2.402;2024-02-04T09:59:37;2.20;;;0.90;;
65853;SDS011;52627;48.838;2.402;2024-02-04T10:02:05;2.30;;;0.70;;
65853;SDS011;52627;48.838;2.402;2024-02-04T10:04:33;2.20;;;0.80;;
65853;SDS011;52627;48.838;2.402;2024-02-04T10:07:02;2.00;;;0.80;;
65853;SDS011;52627;48.838;2.402;2024-02-04T10:09:30;2.10;;;0.60;;
65853;SDS011;52627;48.838;2.402;2024-02-04T10:11:58;1.70;;;0.70;;
65853;SDS011;52627;48.838;2.402;2024-02-04T10:14:26;2.20;;;1.00;;
65853;SDS011;52627;48.838;2.402;2024-02-04T10:16:53;2.40;;;0.70;;
65853;SDS011;52627;48.838;2.402;2024-02-04T10:19:24;1.80;;;0.70;;
65853;SDS011;52627;48.838;2.402;2024-02-04T10:22:00;1.00;;;0.50;;
65853;SDS011;52627;48.838;2.402;2024-02-04T10:24:29;2.50;;;0.70;;
65853;SDS011;52627;48.838;2.402;2024-02-04T10:26:57;1.50;;;0.90;;
65853;SDS011;52627;48.838;2.402;2024-02-04T10:29:25;2.40;;;1.10;;
65853;SDS011;52627;48.838;2.402;2024-02-04T10:31:57;1.20;;;0.60;;
65853;SDS011;52627;48.838;2.402;2024-02-04T10:34:28;1.90;;;0.80;;
65853;SDS011;52627;48.838;2.402;2024-02-04T10:36:59;1.70;;;0.70;;
65853;SDS011;52627;48.838;2.402;2024-02-04T10:39:26;2.60;;;1.00;;
65853;SDS011;52627;48.838;2.402;2024-02-04T10:41:56;2.90;;;1.00;;
65853;SDS011;52627;48.838;2.402;2024-02-04T10:44:32;5.50;;;1.00;;
65853;SDS011;52627;48.838;2.402;2024-02-04T10:47:05;1.90;;;0.80;;
65853;SDS011;52627;48.838;2.402;2024-02-04T10:49:37;2.80;;;0.80;;
65853;SDS011;52627;48.838;2.402;2024-02-04T10:52:08;2.00;;;0.70;;
65853;SDS011;52627;48.838;2.402;2024-02-04T10:54:37;3.30;;;1.20;;
65853;SDS011;52627;48.838;2.402;2024-02-04T10:57:12;1.20;;;0.50;;
65853;SDS011;52627;48.838;2.402;2024-02-04T10:59:43;1.70;;;0.90;;
65853;SDS011;52627;48.838;2.402;2024-02-04T11:02:11;1.70;;;0.50;;
65853;SDS011;52627;48.838;2.402;2024-02-04T11:04:40;2.10;;;0.80;;
65853;SDS011;52627;48.838;2.402;2024-02-04T11:07:10;1.60;;;0.70;;
65853;SDS011;52627;48.838;2.402;2024-02-04T11:09:39;2.10;;;0.80;;
65853;SDS011;52627;48.838;2.402;2024-02-04T11:12:11;1.60;;;0.70;;
65853;SDS011;52627;48.838;2.402;2024-02-04T11:14:41;3.30;;;1.00;;
65853;SDS011;52627;48.838;2.402;2024-02-04T11:23:19;2.70;;;0.80;;
65853;SDS011;52627;48.838;2.402;2024-02-04T11:26:12;5.10;;;1.10;;
65853;SDS011;52627;48.838;2.402;2024-02-04T11:28:41;1.90;;;0.80;;
65853;SDS011;52627;48.838;2.402;2024-02-04T11:31:19;1.80;;;0.70;;
65853;SDS011;52627;48.838;2.402;2024-02-04T11:33:50;3.60;;;1.10;;
65853;SDS011;52627;48.838;2.402;2024-02-04T11:38:51;2.60;;;0.70;;
65853;SDS011;52627;48.838;2.402;2024-02-04T11:41:23;1.60;;;0.60;;
65853;SDS011;52627;48.838;2.402;2024-02-04T11:44:01;4.80;;;0.90;;
65853;SDS011;52627;48.838;2.402;2024-02-04T11:46:34;2.10;;;0.70;;
65853;SDS011;52627;48.838;2.402;2024-02-04T11:49:02;3.10;;;0.80;;
65853;SDS011;52627;48.838;2.402;2024-02-04T11:51:30;2.50;;;0.90;;
65853;SDS011;52627;48.838;2.402;2024-02-04T11:53:59;2.30;;;1.00;;
65853;SDS011;52627;48.838;2.402;2024-02-04T11:56:28;1.90;;;0.70;;
65853;SDS011;52627;48.838;2.402;2024-02-04T11:58:56;2.20;;;0.90;;
65853;SDS011;52627;48.838;2.402;2024-02-04T12:01:23;1.70;;;1.00;;
65853;SDS011;52627;48.838;2.402;2024-02-04T12:03:52;2.20;;;0.90;;
65853;SDS011;52627;48.838;2.402;2024-02-04T12:06:19;1.70;;;0.70;;
65853;SDS011;52627;48.838;2.402;2024-02-04T12:08:47;3.10;;;1.20;;
65853;SDS011;52627;48.838;2.402;2024-02-04T12:11:15;2.60;;;0.90;;
65853;SDS011;52627;48.838;2.402;2024-02-04T12:13:44;2.00;;;0.80;;
65853;SDS011;52627;48.838;2.402;2024-02-04T12:16:12;3.90;;;0.90;;
65853;SDS011;52627;48.838;2.402;2024-02-04T12:18:50;1.80;;;0.70;;
65853;SDS011;52627;48.838;2.402;2024-02-04T12:21:19;2.60;;;0.80;;
65853;SDS011;52627;48.838;2.402;2024-02-04T12:23:47;2.10;;;0.80;;
65853;SDS011;52627;48.838;2.402;2024-02-04T12:26:15;1.60;;;0.60;;
65853;SDS011;52627;48.838;2.402;2024-02-04T12:28:43;1.90;;;0.60;;
65853;SDS011;52627;48.838;2.402;2024-02-04T12:31:18;2.60;;;1.00;;
65853;SDS011;52627;48.838;2.402;2024-02-04T12:33:57;4.10;;;1.00;;
65853;SDS011;52627;48.838;2.402;2024-02-04T12:36:28;3.40;;;1.00;;
65853;SDS011;52627;48.838;2.402;2024-02-04T12:38:58;3.50;;;1.10;;
65853;SDS011;52627;48.838;2.402;2024-02-04T12:41:39;1.70;;;0.60;;
65853;SDS011;52627;48.838;2.402;2024-02-04T12:44:07;2.50;;;1.00;;
65853;SDS011;52627;48.838;2.402;2024-02-04T12:46:34;1.80;;;0.80;;
65853;SDS011;52627;48.838;2.402;2024-02-04T12:49:02;1.60;;;0.70;;
65853;SDS011;52627;48.838;2.402;2024-02-04T12:51:33;2.40;;;0.70;;
65853;SDS011;52627;48.838;2.402;2024-02-04T12:54:06;3.00;;;1.00;;
65853;SDS011;52627;48.838;2.402;2024-02-04T12:56:51;2.30;;;0.80;;
65853;SDS011;52627;48.838;2.402;2024-02-04T12:59:38;2.30;;;0.80;;
65853;SDS011;52627;48.838;2.402;2024-02-04T13:02:07;2.40;;;0.90;;
65853;SDS011;52627;48.838;2.402;2024-02-04T13:04:39;2.00;;;0.80;;
65853;SDS011;52627;48.838;2.402;2024-02-04T13:07:12;2.70;;;0.90;;
65853;SDS011;52627;48.838;2.402;2024-02-04T13:09:42;3.70;;;1.00;;
65853;SDS011;52627;48.838;2.402;2024-02-04T13:12:14;3.10;;;0.90;;
65853;SDS011;52627;48.838;2.402;2024-02-04T13:17:12;2.00;;;0.90;;
65853;SDS011;52627;48.838;2.402;2024-02-04T13:19:39;2.70;;;0.70;;
65853;SDS011;52627;48.838;2.402;2024-02-04T13:22:07;1.60;;;0.70;;
65853;SDS011;52627;48.838;2.402;2024-02-04T13:24:38;3.70;;;1.00;;
65853;SDS011;52627;48.838;2.402;2024-02-04T13:27:06;2.30;;;0.70;;
65853;SDS011;52627;48.838;2.402;2024-02-04T13:29:35;2.00;;;0.80;;
65853;SDS011;52627;48.838;2.402;2024-02-04T13:32:03;3.20;;;0.80;;
65853;SDS011;52627;48.838;2.402;2024-02-04T13:34:32;3.50;;;0.80;;
65853;SDS011;52627;48.838;2.402;2024-02-04T13:37:01;3.00;;;0.80;;
65853;SDS011;52627;48.838;2.402;2024-02-04T13:39:29;3.50;;;0.90;;
65853;SDS011;52627;48.838;2.402;2024-02-04T13:41:56;1.80;;;0.70;;
65853;SDS011;52627;48.838;2.402;2024-02-04T13:44:24;2.70;;;0.90;;
65853;SDS011;52627;48.838;2.402;2024-02-04T13:46:51;2.20;;;0.80;;
65853;SDS011;52627;48.838;2.402;2024-02-04T13:49:19;2.30;;;0.80;;
65853;SDS011;52627;48.838;2.402;2024-02-04T13:51:47;2.20;;;0.50;;
65853;SDS011;52627;48.838;2.402;2024-02-04T13:54:15;3.00;;;0.80;;
65853;SDS011;52627;48.838;2.402;2024-02-04T13:56:45;2.30;;;0.90;;
65853;SDS011;52627;48.838;2.402;2024-02-04T13:59:13;3.80;;;1.10;;
65853;SDS011;52627;48.838;2.402;2024-02-04T14:01:41;2.00;;;0.80;;
65853;SDS011;52627;48.838;2.402;2024-02-04T14:04:09;2.00;;;0.90;;
65853;SDS011;52627;48.838;2.402;2024-02-04T14:06:36;4.30;;;1.00;;
65853;SDS011;52627;48.838;2.402;2024-02-04T14:09:04;3.60;;;1.00;;
65853;SDS011;52627;48.838;2.402;2024-02-04T14:11:32;5.10;;;1.00;;
65853;SDS011;52627;48.838;2.402;2024-02-04T14:14:00;2.60;;;1.10;;
65853;SDS011;52627;48.838;2.402;2024-02-04T14:16:31;2.10;;;0.90;;
65853;SDS011;52627;48.838;2.402;2024-02-04T14:18:59;2.00;;;0.90;;
65853;SDS011;52627;48.838;2.402;2024-02-04T14:21:28;2.60;;;1.10;;
65853;SDS011;52627;48.838;2.402;2024-02-04T14:23:55;3.60;;;1.30;;
65853;SDS011;52627;48.838;2.402;2024-02-04T14:26:24;3.00;;;0.70;;
65853;SDS011;52627;48.838;2.402;2024-02-04T14:28:52;2.60;;;0.80;;
65853;SDS011;52627;48.838;2.402;2024-02-04T14:31:19;3.80;;;0.90;;
65853;SDS011;52627;48.838;2.402;2024-02-04T14:33:49;2.80;;;0.90;;
65853;SDS011;52627;48.838;2.402;2024-02-04T14:36:17;3.00;;;0.80;;
65853;SDS011;52627;48.838;2.402;2024-02-04T14:38:46;3.60;;;0.90;;
65853;SDS011;52627;48.838;2.402;2024-02-04T14:41:13;2.60;;;1.00;;
65853;SDS011;52627;48.838;2.402;2024-02-04T14:43:40;2.50;;;0.80;;
65853;SDS011;52627;48.838;2.402;2024-02-04T14:46:08;5.80;;;1.20;;
65853;SDS011;52627;48.838;2.402;2024-02-04T14:48:36;3.00;;;0.90;;
65853;SDS011;52627;48.838;2.402;2024-02-04T14:51:09;4.60;;;1.20;;
65853;SDS011;52627;48.838;2.402;2024-02-04T14:53:36;3.90;;;1.30;;
65853;SDS011;52627;48.838;2.402;2024-02-04T14:56:04;2.50;;;1.00;;
65853;SDS011;52627;48.838;2.402;2024-02-04T14:58:32;5.60;;;1.40;;
65853;SDS011;52627;48.838;2.402;2024-02-04T15:01:00;3.50;;;1.10;;
65853;SDS011;52627;48.838;2.402;2024-02-04T15:03:28;4.20;;;1.30;;
65853;SDS011;52627;48.838;2.402;2024-02-04T15:05:56;4.50;;;1.40;;
65853;SDS011;52627;48.838;2.402;2024-02-04T15:08:23;4.40;;;1.50;;
65853;SDS011;52627;48.838;2.402;2024-02-04T15:10:51;3.60;;;1.10;;
65853;SDS011;52627;48.838;2.402;2024-02-04T15:13:18;7.70;;;1.80;;
65853;SDS011;52627;48.838;2.402;2024-02-04T15:15:46;2.80;;;1.00;;
65853;SDS011;52627;48.838;2.402;2024-02-04T15:18:15;6.40;;;1.50;;